Terminal Aerodrome Forecast
Issued by NWS

Home | Current Version | Previous Version | Text Only | Print | Product List | Glossary On
Versions: 1 2 3 4 5 6 7 8 9 10 11 12 13 14 15 16 17 18 19 20
000
FTUS43 KICT 011739
TAFHUT
TAF
KHUT 011739Z 0118/0218 18014G21KT P6SM SCT250
     FM020000 16012KT P6SM SCT080 BKN150
     FM021500 18015G22KT P6SM BKN150=

USA.gov is the U.S. government's official web portal to all federal, state and local government web resources and services.